Time;durP1;ratioP1;P1;durP2;ratioP2;P2;SDS_P1;SDS_P2;PMS_P1;PMS_P2;Temp;Humidity;BMP_temperature;BMP_pressure;BME280_temperature;BME280_humidity;BME280_pressure;Samples;Min_cycle;Max_cycle;Signal;HPM_P1;HPM_P2
2022/03/03 00:01:39;;;;;;;;;63.33;51.33;;;;;14.87;47.54;101405.16;5096220;27;61892;-75
2022/03/03 00:04:05;;;;;;;;;80.33;61.33;;;;;14.87;47.69;101398.09;5080039;27;62028;-75
2022/03/03 00:06:31;;;;;;;;;74.50;58.75;;;;;14.87;47.61;101403.41;5081635;27;62140;-75
2022/03/03 00:08:57;;;;;;;;;71.67;58.00;;;;;14.86;47.70;101398.94;5080272;28;62620;-75
2022/03/03 00:11:22;;;;;;;;;72.50;54.50;;;;;14.86;47.79;101395.41;5082022;27;61857;-75
2022/03/03 00:13:49;;;;;;;;;76.25;55.25;;;;;14.85;47.83;101394.50;5081052;27;62029;-75
2022/03/03 00:16:14;;;;;;;;;78.00;60.33;;;;;14.84;48.26;101403.25;5080947;27;61799;-75
2022/03/03 00:18:40;;;;;;;;;77.25;59.25;;;;;14.79;48.22;101396.91;5080937;27;61968;-75
2022/03/03 00:21:06;;;;;;;;;83.00;61.00;;;;;14.80;48.23;101398.72;5081524;27;62061;-75
2022/03/03 00:23:32;;;;;;;;;80.00;56.67;;;;;14.79;48.17;101396.03;5080845;27;61923;-75
2022/03/03 00:25:58;;;;;;;;;83.00;60.00;;;;;14.80;48.07;101400.47;5081190;27;61806;-75
2022/03/03 00:28:24;;;;;;;;;82.67;63.00;;;;;14.80;47.76;101403.09;5082269;27;61881;-75
2022/03/03 00:30:49;;;;;;;;;75.00;59.33;;;;;14.81;48.04;101407.56;5084837;27;62609;-75
2022/03/03 00:33:15;;;;;;;;;73.67;59.00;;;;;14.80;48.37;101409.28;5084379;27;61908;-75
2022/03/03 00:35:40;;;;;;;;;74.33;57.00;;;;;14.78;48.21;101404.78;5085484;27;61841;-75
2022/03/03 00:38:06;;;;;;;;;75.33;57.67;;;;;14.77;48.42;101403.88;5101196;27;61970;-76
2022/03/03 00:40:31;;;;;;;;;75.33;58.00;;;;;14.75;48.47;101409.97;5085658;27;61755;-75
2022/03/03 00:42:56;;;;;;;;;77.33;57.67;;;;;14.74;48.55;101417.00;5084592;28;61834;-75
2022/03/03 00:45:22;;;;;;;;;75.00;57.00;;;;;14.71;48.61;101407.19;5084314;27;62045;-75
2022/03/03 00:47:48;;;;;;;;;85.33;63.00;;;;;14.69;48.47;101411.53;5084192;27;61785;-75
2022/03/03 00:50:15;;;;;;;;;81.00;61.33;;;;;14.69;48.71;101416.81;5085219;27;62162;-75
2022/03/03 00:52:40;;;;;;;;;74.00;60.33;;;;;14.67;48.59;101417.59;5084846;28;61742;-75
2022/03/03 00:55:07;;;;;;;;;82.67;60.67;;;;;14.66;48.63;101416.69;5085052;27;61683;-75
2022/03/03 00:57:32;;;;;;;;;85.67;62.00;;;;;14.65;48.40;101414.00;5084928;28;61976;-75
2022/03/03 00:59:58;;;;;;;;;80.67;58.33;;;;;14.63;48.93;101410.38;5085495;27;61647;-75
2022/03/03 01:02:23;;;;;;;;;77.00;56.33;;;;;14.61;48.75;101405.06;5081532;28;64982;-75
2022/03/03 01:04:49;;;;;;;;;76.75;59.75;;;;;14.59;49.04;101409.41;5084441;27;61970;-75
2022/03/03 01:07:14;;;;;;;;;83.67;59.00;;;;;14.57;49.22;101405.78;5083016;27;62617;-75
2022/03/03 01:09:40;;;;;;;;;76.33;60.00;;;;;14.55;49.08;101402.19;5084841;27;62391;-75
2022/03/03 01:12:06;;;;;;;;;79.33;59.33;;;;;14.53;49.45;101407.38;5084490;27;62851;-75
2022/03/03 01:14:31;;;;;;;;;81.67;62.67;;;;;14.53;49.29;101403.84;5084521;27;61800;-75
2022/03/03 01:16:57;;;;;;;;;80.67;59.33;;;;;14.52;48.98;101408.22;5084458;28;61799;-75
2022/03/03 01:19:22;;;;;;;;;76.67;56.67;;;;;14.52;49.25;101405.59;5083341;28;61807;-75
2022/03/03 01:21:48;;;;;;;;;82.33;60.00;;;;;14.49;49.19;101401.91;5082843;28;63363;-75
2022/03/03 01:24:14;;;;;;;;;75.33;59.00;;;;;14.48;49.23;101403.66;5084388;27;61861;-75
2022/03/03 01:26:39;;;;;;;;;75.33;58.00;;;;;14.47;49.63;101398.31;5100188;27;62001;-75
2022/03/03 01:29:05;;;;;;;;;80.33;59.67;;;;;14.46;49.38;101400.06;5084726;28;62091;-75
2022/03/03 01:31:30;;;;;;;;;88.33;65.33;;;;;14.44;49.44;101396.47;5083259;27;63228;-75
2022/03/03 01:33:56;;;;;;;;;95.00;65.00;;;;;14.43;49.45;101399.94;5084695;27;61938;-75
2022/03/03 01:36:21;;;;;;;;;71.33;57.33;;;;;14.41;49.36;101396.34;5084672;28;61935;-75
2022/03/03 01:38:48;;;;;;;;;83.00;57.67;;;;;14.39;49.18;101392.72;5084682;27;62014;-75
2022/03/03 01:41:13;;;;;;;;;86.00;63.00;;;;;14.39;49.21;101395.38;5083303;27;61774;-75
2022/03/03 01:43:39;;;;;;;;;77.33;59.33;;;;;14.34;49.79;101388.13;5083675;27;61834;-75
2022/03/03 01:46:05;;;;;;;;;83.00;61.33;;;;;14.33;49.80;101387.19;5084519;27;62001;-75
2022/03/03 01:48:31;;;;;;;;;78.00;56.00;;;;;14.31;49.73;101386.28;5100324;27;61825;-75
2022/03/03 01:50:56;;;;;;;;;80.25;60.50;;;;;14.29;50.22;101380.03;5083835;27;61839;-75
2022/03/03 01:53:22;;;;;;;;;78.67;60.00;;;;;14.30;50.07;101381.81;5084162;27;62019;-75
2022/03/03 01:55:53;;;;;;;;;79.67;58.67;;;;;14.31;50.00;101376.59;5084131;27;62161;-75
2022/03/03 01:58:18;;;;;;;;;82.33;59.67;;;;;14.35;49.84;101382.00;5082754;28;61970;-75
2022/03/03 02:00:44;;;;;;;;;83.67;62.00;;;;;14.37;49.84;101377.66;5098779;27;65144;-75
2022/03/03 02:03:10;;;;;;;;;73.00;58.00;;;;;14.40;49.97;101381.34;5082669;28;61807;-75
2022/03/03 02:05:37;;;;;;;;;86.00;62.00;;;;;14.46;49.68;101386.88;5099815;27;62250;-75
2022/03/03 02:08:03;;;;;;;;;81.00;62.00;;;;;14.49;49.75;101386.97;5083182;28;61778;-75
2022/03/03 02:10:31;;;;;;;;;84.67;61.67;;;;;14.55;49.45;101383.69;5083767;27;61809;-75
2022/03/03 02:12:56;;;;;;;;;87.00;64.33;;;;;14.61;49.58;101386.56;5083598;27;62172;-75
2022/03/03 02:15:22;;;;;;;;;86.33;62.67;;;;;14.66;49.57;101382.34;5083751;27;62009;-75
2022/03/03 02:17:47;;;;;;;;;82.00;62.00;;;;;14.71;49.48;101382.53;5083940;27;62147;-75
2022/03/03 02:20:33;;;;;;;;;88.67;65.33;;;;;14.75;49.34;101378.25;5083283;28;63085;-75
2022/03/03 02:22:59;;;;;;;;;85.33;64.67;;;;;14.79;49.19;101385.47;5083173;27;61883;-75
2022/03/03 02:25:26;;;;;;;;;81.25;60.50;;;;;14.83;49.44;101384.72;5082638;28;61868;-75
2022/03/03 02:27:52;;;;;;;;;6.33;4.67;;;;;14.86;49.27;101377.78;5083215;27;62008;-75
2022/03/03 02:30:18;;;;;;;;;85.00;65.33;;;;;14.89;49.06;101377.03;5081658;27;64783;-75
2022/03/03 02:32:44;;;;;;;;;83.67;63.67;;;;;14.92;49.41;101371.84;5083299;27;61834;-75
2022/03/03 02:35:11;;;;;;;;;85.33;64.33;;;;;14.92;49.40;101364.78;5083907;27;62029;-75
2022/03/03 02:37:39;;;;;;;;;93.67;66.33;;;;;14.96;49.24;101364.94;5099490;27;61773;-75
2022/03/03 02:40:08;;;;;;;;;88.33;65.33;;;;;14.97;49.58;101364.97;5098464;27;65031;-75
2022/03/03 02:42:33;;;;;;;;;85.33;62.67;;;;;14.99;49.17;101367.66;5082062;28;62000;-75
2022/03/03 02:44:59;;;;;;;;;86.33;63.67;;;;;15.01;49.18;101368.63;5082785;27;62209;-75
2022/03/03 02:47:25;;;;;;;;;79.67;60.00;;;;;15.01;49.40;101361.59;5083755;27;61942;-75
2022/03/03 02:49:50;;;;;;;;;85.33;61.33;;;;;15.03;49.60;101361.66;5082782;27;62003;-75
2022/03/03 02:52:16;;;;;;;;;80.67;61.33;;;;;15.05;49.71;101355.56;5081899;27;61816;-75
2022/03/03 02:54:41;;;;;;;;;79.00;61.00;;;;;15.05;49.56;101350.28;5082486;27;61941;-75
2022/03/03 02:59:51;;;;;;;;;86.00;63.00;;;;;14.99;49.89;101343.88;5082166;28;61850;-74
2022/03/03 03:02:16;;;;;;;;;83.33;59.00;;;;;14.98;49.78;101342.97;5082063;27;61979;-75
2022/03/03 03:04:42;;;;;;;;;79.33;61.00;;;;;15.00;50.09;101333.38;5081745;28;61971;-74
2022/03/03 03:07:07;;;;;;;;;54.00;40.50;;;;;15.04;49.78;101331.69;5082222;27;61814;-74
2022/03/03 03:09:33;;;;;;;;;78.33;61.33;;;;;15.06;49.71;101336.22;5081472;28;62908;-75
2022/03/03 03:11:58;;;;;;;;;80.00;61.00;;;;;15.06;49.98;101330.00;5080811;28;61850;-74
2022/03/03 03:14:24;;;;;;;;;84.67;68.33;;;;;15.04;49.59;101324.69;5081550;27;62135;-75
2022/03/03 03:16:49;;;;;;;;;84.00;59.67;;;;;15.07;50.03;101329.19;5083051;27;62048;-75
2022/03/03 03:19:16;;;;;;;;;81.00;58.00;;;;;15.09;49.56;101315.16;5082256;27;62939;-74
2022/03/03 03:21:41;;;;;;;;;76.67;58.67;;;;;15.10;50.16;101321.34;5081534;28;61837;-75
2022/03/03 03:24:07;;;;;;;;;74.50;55.00;;;;;15.13;50.03;101313.53;5082780;27;61950;-75
2022/03/03 03:26:32;;;;;;;;;78.00;59.67;;;;;15.16;49.86;101312.72;5082785;27;61766;-74
2022/03/03 03:28:58;;;;;;;;;87.75;61.75;;;;;15.17;49.78;101312.78;5097757;27;64385;-75
2022/03/03 03:31:23;;;;;;;;;81.67;63.00;;;;;15.19;49.96;101313.75;5082420;28;61746;-74
2022/03/03 03:33:49;;;;;;;;;75.75;59.50;;;;;15.21;49.95;101313.78;5082987;27;61725;-75
2022/03/03 03:36:14;;;;;;;;;80.67;61.00;;;;;15.24;50.13;101308.59;5082648;27;61723;-75
2022/03/03 03:38:40;;;;;;;;;73.00;53.25;;;;;15.25;49.81;101310.38;5080601;28;63456;-74
2022/03/03 03:41:05;;;;;;;;;79.00;59.33;;;;;15.28;49.98;101302.56;5081048;28;61847;-75
2022/03/03 03:43:31;;;;;;;;;79.33;59.33;;;;;15.29;49.95;101299.97;5081250;28;62054;-75
2022/03/03 03:45:56;;;;;;;;;76.50;58.00;;;;;15.30;49.85;101299.13;5082049;28;61950;-74
2022/03/03 03:48:22;;;;;;;;;80.50;56.25;;;;;15.33;49.96;101296.56;5081253;27;61703;-75
2022/03/03 03:50:47;;;;;;;;;80.00;58.00;;;;;15.34;49.75;101289.56;5082230;27;61751;-74
2022/03/03 03:53:13;;;;;;;;;81.67;58.67;;;;;15.39;49.95;101284.41;5080517;27;62125;-74
2022/03/03 03:55:38;;;;;;;;;76.33;58.00;;;;;15.38;49.95;101278.25;5081960;27;61954;-75
2022/03/03 03:58:04;;;;;;;;;85.00;63.75;;;;;15.39;49.86;101280.03;5081733;27;61917;-74
2022/03/03 04:00:29;;;;;;;;;73.25;55.50;;;;;15.41;49.77;101286.25;5081729;27;61732;-75
2022/03/03 04:02:55;;;;;;;;;74.25;55.25;;;;;15.42;50.08;101277.47;5081927;28;61925;-75
2022/03/03 04:05:21;;;;;;;;;62.67;51.67;;;;;15.43;50.00;101286.31;5080585;28;61809;-74
2022/03/03 04:07:46;;;;;;;;;69.75;55.00;;;;;15.45;49.91;101280.22;5095848;27;64573;-74
2022/03/03 04:10:12;;;;;;;;;81.50;61.25;;;;;15.46;49.87;101281.13;5081703;28;62482;-74
2022/03/03 04:12:39;;;;;;;;;80.00;57.25;;;;;15.45;50.05;101274.94;5097785;27;62015;-75
2022/03/03 04:15:05;;;;;;;;;74.50;56.25;;;;;15.48;50.22;101271.47;5082417;27;62166;-75
2022/03/03 04:17:30;;;;;;;;;80.75;59.00;;;;;15.50;50.12;101273.31;5080998;27;62128;-75
2022/03/03 04:19:56;;;;;;;;;78.75;56.25;;;;;15.49;50.15;101263.59;5080832;28;61833;-75
2022/03/03 04:22:21;;;;;;;;;71.00;53.00;;;;;15.49;50.27;101266.25;5097317;27;61900;-75
2022/03/03 04:24:47;;;;;;;;;79.00;57.67;;;;;15.51;50.30;101259.25;5097488;27;62207;-74
2022/03/03 04:27:12;;;;;;;;;79.75;57.25;;;;;15.51;50.38;101247.75;5081162;27;61873;-74
2022/03/03 04:29:38;;;;;;;;;80.25;61.00;;;;;15.49;50.44;101260.06;5081864;27;61905;-74
2022/03/03 04:32:04;;;;;;;;;78.75;59.50;;;;;15.50;50.18;101251.25;5081706;27;62146;-74
2022/03/03 04:34:29;;;;;;;;;77.50;57.50;;;;;15.50;50.52;101249.50;5081878;27;61710;-74
2022/03/03 04:36:55;;;;;;;;;75.50;58.25;;;;;15.49;50.82;101249.47;5081245;27;62017;-74
2022/03/03 04:39:20;;;;;;;;;74.75;58.50;;;;;15.39;51.23;101248.28;5081260;27;61898;-74
2022/03/03 04:41:46;;;;;;;;;82.33;61.33;;;;;15.31;51.43;101244.47;5081821;27;61912;-74
2022/03/03 04:44:11;;;;;;;;;72.75;55.25;;;;;15.26;51.45;101241.69;5097557;27;61857;-73
2022/03/03 04:46:37;;;;;;;;;79.25;59.50;;;;;15.29;51.42;101247.06;5080612;27;62730;-74
2022/03/03 04:49:02;;;;;;;;;78.00;58.00;;;;;15.29;51.70;101240.88;5081474;27;61786;-74
2022/03/03 04:51:29;;;;;;;;;73.00;57.25;;;;;15.26;51.52;101241.69;5081536;27;61928;-74
2022/03/03 04:53:55;;;;;;;;;75.75;57.75;;;;;15.27;51.31;101235.53;5081626;27;61731;-74
2022/03/03 04:56:20;;;;;;;;;74.75;57.50;;;;;15.30;51.57;101238.28;5080706;28;62514;-74
2022/03/03 04:58:46;;;;;;;;;66.75;53.50;;;;;15.32;51.37;101241.88;5081188;27;61656;-74
2022/03/03 05:01:12;;;;;;;;;72.75;55.25;;;;;15.33;51.55;101235.75;5081398;27;61729;-74
2022/03/03 05:03:37;;;;;;;;;76.00;59.33;;;;;15.34;51.11;101232.25;5081582;27;62168;-74
2022/03/03 05:06:03;;;;;;;;;78.75;61.50;;;;;15.35;51.21;101233.16;5081049;27;61784;-74
2022/03/03 05:08:29;;;;;;;;;77.75;60.00;;;;;15.32;51.33;101225.13;5080348;27;62024;-74
2022/03/03 05:10:55;;;;;;;;;82.00;60.75;;;;;15.28;51.53;101223.22;5081266;27;61914;-74
2022/03/03 05:13:20;;;;;;;;;76.00;57.67;;;;;15.24;51.81;101230.16;5097317;27;62199;-74
2022/03/03 05:15:46;;;;;;;;;80.67;64.00;;;;;15.24;51.65;101238.09;5079915;28;63738;-74
2022/03/03 05:18:12;;;;;;;;;75.75;58.75;;;;;15.26;51.46;101236.41;5083362;28;62233;-74
2022/03/03 05:20:38;;;;;;;;;73.25;53.50;;;;;15.27;51.78;101226.72;5084911;27;61905;-74
2022/03/03 05:23:04;;;;;;;;;68.75;52.50;;;;;15.30;51.71;101230.38;5084524;27;61892;-74
2022/03/03 05:25:29;;;;;;;;;70.25;54.50;;;;;15.32;51.83;101233.06;5084036;27;62992;-74
2022/03/03 05:27:55;;;;;;;;;70.75;54.25;;;;;15.34;51.89;101232.25;5084211;27;62156;-74
2022/03/03 05:30:20;;;;;;;;;71.75;54.25;;;;;15.36;51.79;101228.75;5100618;27;61702;-74
2022/03/03 05:32:48;;;;;;;;;74.00;56.00;;;;;15.37;51.74;101239.38;5084120;27;61698;-74
2022/03/03 05:35:14;;;;;;;;;77.50;54.75;;;;;15.36;52.10;101237.59;5099661;27;64905;-74
2022/03/03 05:37:40;;;;;;;;;77.00;57.75;;;;;15.36;52.17;101239.31;5084540;27;62037;-74
2022/03/03 05:40:05;;;;;;;;;80.25;57.25;;;;;15.38;52.03;101237.63;5084366;27;61990;-74
2022/03/03 05:42:31;;;;;;;;;72.00;57.00;;;;;15.40;51.93;101239.47;5084611;27;61985;-74
2022/03/03 05:44:56;;;;;;;;;88.67;64.67;;;;;15.41;52.10;101241.28;5083297;27;61888;-74
2022/03/03 05:47:28;;;;;;;;;86.00;66.33;;;;;15.45;51.92;101239.66;5082460;27;62056;-74
2022/03/03 05:49:55;;;;;;;;;82.25;61.75;;;;;15.47;52.03;101233.53;5084211;28;61813;-74
2022/03/03 05:52:21;;;;;;;;;87.00;64.50;;;;;15.48;52.05;101229.16;5100207;27;61861;-74
2022/03/03 05:54:47;;;;;;;;;83.00;62.00;;;;;15.50;52.27;101236.28;5083940;27;62022;-74
2022/03/03 05:57:35;;;;;;;;;87.00;63.00;;;;;15.51;51.97;101235.44;5084064;27;62069;-74
2022/03/03 06:00:21;;;;;;;;;65.50;50.25;;;;;15.50;53.25;101238.03;5099839;27;61955;-74
2022/03/03 06:02:51;;;;;;;;;78.50;55.50;;;;;15.41;52.97;101238.63;5083447;27;62262;-74
2022/03/03 06:05:27;;;;;;;;;78.50;56.25;;;;;15.42;52.63;101228.94;5083282;27;63372;-74
2022/03/03 06:08:05;;;;;;;;;72.00;53.75;;;;;15.45;52.42;101223.78;5082852;27;61829;-74
2022/03/03 06:10:33;;;;;;;;;65.75;50.25;;;;;15.39;53.33;101228.88;5084312;27;61922;-74
2022/03/03 06:13:24;;;;;;;;;70.00;56.00;;;;;15.35;53.11;101233.16;5084000;27;62003;-74
2022/03/03 06:15:54;;;;;;;;;73.50;56.25;;;;;15.42;52.83;101228.94;5083229;27;62390;-74
2022/03/03 06:18:24;;;;;;;;;74.75;56.00;;;;;15.44;53.17;101224.59;5083662;27;61790;-76
2022/03/03 06:20:51;;;;;;;;;66.00;54.00;;;;;15.46;53.01;101234.38;5099361;27;61938;-76
2022/03/03 06:23:17;;;;;;;;;78.00;55.25;;;;;15.47;52.62;101237.94;5083654;27;61720;-76
2022/03/03 06:25:43;;;;;;;;;70.75;52.00;;;;;15.46;52.62;101237.03;5083252;27;61765;-75
2022/03/03 06:28:09;;;;;;;;;70.25;56.75;;;;;15.45;52.81;101243.19;5083038;27;61743;-75
2022/03/03 06:30:35;;;;;;;;;76.25;55.75;;;;;15.48;52.54;101240.63;5083186;27;61736;-75
2022/03/03 06:33:00;;;;;;;;;69.75;51.75;;;;;15.48;52.58;101237.97;5083509;27;62037;-75
2022/03/03 06:35:26;;;;;;;;;75.25;56.25;;;;;15.51;52.72;101240.72;5081300;28;63884;-75
2022/03/03 06:37:51;;;;;;;;;75.50;55.75;;;;;15.52;52.81;101238.97;5083300;27;62303;-73
2022/03/03 06:40:17;;;;;;;;;91.00;62.00;;;;;15.55;52.53;101236.41;5083313;27;62059;-75
2022/03/03 06:42:42;;;;;;;;;70.00;52.50;;;;;15.47;53.25;101232.66;5099344;27;61798;-75
2022/03/03 06:45:08;;;;;;;;;81.50;61.50;;;;;15.45;52.94;101240.53;5082817;28;62002;-75
2022/03/03 06:47:34;;;;;;;;;71.50;56.25;;;;;15.49;52.90;101249.47;5083396;27;62341;-77
2022/03/03 06:49:59;;;;;;;;;77.75;57.25;;;;;15.53;52.72;101246.97;5092569;27;61951;-76
2022/03/03 06:52:26;;;;;;;;;69.00;54.50;;;;;15.58;52.70;101247.13;5081599;27;62234;-77
2022/03/03 06:54:53;;;;;;;;;80.33;61.00;;;;;15.62;52.81;101251.66;5082115;28;62265;-77
2022/03/03 06:57:23;;;;;;;;;73.25;52.00;;;;;15.65;52.72;101251.75;5082309;27;62244;-77
2022/03/03 06:59:51;;;;;;;;;78.00;57.33;;;;;15.68;52.71;101256.22;5078144;28;62306;-77
2022/03/03 07:02:17;;;;;;;;;84.33;66.67;;;;;15.70;52.49;101251.88;5062383;28;62268;-77
2022/03/03 07:04:49;;;;;;;;;83.00;61.33;;;;;15.74;52.44;101256.44;5078018;28;63771;-77
2022/03/03 07:07:24;;;;;;;;;76.33;57.67;;;;;15.77;52.96;101256.56;5064215;28;62250;-77
2022/03/03 07:09:50;;;;;;;;;75.75;57.25;;;;;15.79;52.92;101256.59;5083174;27;61696;-77
2022/03/03 07:12:17;;;;;;;;;69.00;52.50;;;;;15.82;53.08;101257.59;5083002;27;61717;-77
2022/03/03 07:14:44;;;;;;;;;58.25;44.50;;;;;15.85;54.15;101249.75;5082230;27;61880;-77
2022/03/03 07:17:23;;;;;;;;;51.75;43.00;;;;;15.89;54.76;101258.66;5082057;27;61983;-78
2022/03/03 07:20:13;;;;;;;;;55.75;44.00;;;;;15.91;54.84;101249.03;5081647;28;61920;-78
2022/03/03 07:22:55;;;;;;;;;52.75;38.75;;;;;15.95;55.04;101258.84;5082809;27;61644;-75
2022/03/03 07:25:28;;;;;;;;;47.50;41.75;;;;;15.99;55.44;101263.41;5081910;28;62011;-76
2022/03/03 07:27:54;;;;;;;;;53.25;42.00;;;;;16.00;55.71;101254.59;5081093;28;61891;-76
2022/03/03 07:30:20;;;;;;;;;51.25;41.75;;;;;16.03;55.38;101252.03;5082569;27;62088;-76
2022/03/03 07:33:06;;;;;;;;;59.00;39.00;;;;;16.10;55.25;101255.78;5081907;27;61842;-76
2022/03/03 07:35:34;;;;;;;;;54.50;41.75;;;;;16.14;55.34;101252.34;5097481;27;64716;-76
2022/03/03 07:38:08;;;;;;;;;49.25;38.25;;;;;16.18;55.30;101253.34;5081365;27;61680;-76
2022/03/03 07:40:34;;;;;;;;;55.75;41.50;;;;;16.20;55.44;101254.31;5081173;27;62369;-76
2022/03/03 07:43:00;;;;;;;;;59.50;41.75;;;;;16.25;55.26;101253.56;5081420;27;62137;-76
2022/03/03 07:45:27;;;;;;;;;52.25;39.75;;;;;16.27;55.20;101251.84;5080912;27;62306;-76
2022/03/03 07:47:57;;;;;;;;;53.75;41.50;;;;;16.34;55.07;101253.81;5081689;27;62146;-76
2022/03/03 07:50:24;;;;;;;;;56.00;39.00;;;;;16.40;54.99;101249.56;5082257;27;62029;-76
2022/03/03 07:52:50;;;;;;;;;49.00;39.00;;;;;16.43;55.14;101249.63;5080774;27;61962;-76
2022/03/03 07:55:16;;;;;;;;;53.00;40.75;;;;;16.49;55.03;101247.16;5081753;27;61864;-75
2022/03/03 07:58:00;;;;;;;;;48.25;40.50;;;;;16.52;54.59;101256.09;5080998;28;61982;-75
2022/03/03 08:00:29;;;;;;;;;51.75;41.25;;;;;16.56;54.80;101251.78;5080877;27;62040;-76
2022/03/03 08:02:59;;;;;;;;;60.25;48.00;;;;;16.59;54.78;101248.31;5070330;27;61961;-76
2022/03/03 08:05:27;;;;;;;;;57.75;45.50;;;;;16.62;54.92;101251.94;5077725;28;62135;-76
2022/03/03 08:07:55;;;;;;;;;48.25;40.00;;;;;16.68;54.89;101252.09;5079663;27;61881;-76
2022/03/03 08:10:24;;;;;;;;;54.25;43.25;;;;;16.70;54.81;101253.03;5081442;27;61810;-76
2022/03/03 08:12:54;;;;;;;;;53.75;41.00;;;;;16.75;54.88;101254.09;5081294;28;61937;-76
2022/03/03 08:15:24;;;;;;;;;46.75;37.50;;;;;16.82;54.79;101246.31;5081029;28;61887;-76
2022/03/03 08:17:51;;;;;;;;;52.75;41.00;;;;;16.89;54.54;101243.84;5061993;28;61853;-75
2022/03/03 08:20:17;;;;;;;;;53.75;41.25;;;;;16.94;54.56;101242.19;5073479;28;61830;-76
2022/03/03 08:22:43;;;;;;;;;52.00;39.25;;;;;16.94;54.46;101242.19;5081843;28;61870;-76
2022/03/03 08:25:11;;;;;;;;;59.75;41.75;;;;;16.99;54.75;101242.34;5080738;28;63254;-76
2022/03/03 08:27:37;;;;;;;;;55.25;42.25;;;;;17.06;54.56;101243.41;5081038;28;62075;-76
2022/03/03 08:30:04;;;;;;;;;51.25;41.00;;;;;17.14;54.38;101245.38;5078394;28;61876;-76
2022/03/03 08:32:35;;;;;;;;;55.00;41.75;;;;;17.21;54.27;101246.44;5080262;27;61829;-76
2022/03/03 08:35:18;;;;;;;;;60.00;41.00;;;;;17.28;53.84;101240.41;5079610;27;62058;-75
2022/03/03 08:37:53;;;;;;;;;48.25;36.00;;;;;17.36;53.73;101248.56;5080962;27;61859;-75
2022/03/03 08:40:19;;;;;;;;;57.00;41.50;;;;;17.41;54.02;101244.25;5081020;27;61826;-75
2022/03/03 08:42:56;;;;;;;;;54.50;43.50;;;;;17.46;53.31;101242.63;5080895;27;61840;-75
2022/03/03 08:45:23;;;;;;;;;58.75;46.00;;;;;17.52;53.75;101244.50;5095476;27;63846;-76
2022/03/03 08:47:56;;;;;;;;;59.75;46.75;;;;;17.62;53.41;101250.94;5079763;27;62142;-75
2022/03/03 08:50:27;;;;;;;;;58.75;45.50;;;;;17.65;53.36;101257.22;5081147;27;61738;-75
2022/03/03 08:52:53;;;;;;;;;60.75;47.00;;;;;17.72;53.26;101261.78;5100083;27;62075;-75
2022/03/03 08:55:18;;;;;;;;;57.00;43.25;;;;;17.78;53.29;101251.31;5099174;27;63750;-76
2022/03/03 08:57:44;;;;;;;;;56.25;41.00;;;;;17.88;52.89;101257.75;5082446;28;62069;-75
2022/03/03 09:00:12;;;;;;;;;55.75;44.50;;;;;17.95;53.09;101254.38;5069420;27;61811;-75
2022/03/03 09:02:40;;;;;;;;;54.75;40.25;;;;;18.00;52.98;101253.59;5074928;28;61960;-76
2022/03/03 09:05:07;;;;;;;;;47.25;41.75;;;;;18.08;52.92;101254.63;5081043;27;61829;-76
2022/03/03 09:07:32;;;;;;;;;56.00;40.75;;;;;18.10;52.45;101266.19;5098229;27;61899;-76
2022/03/03 09:10:01;;;;;;;;;50.25;39.00;;;;;18.17;52.62;101263.69;5081884;27;62092;-77
2022/03/03 09:12:27;;;;;;;;;54.25;41.25;;;;;18.26;52.34;101264.75;5081906;27;61885;-75
2022/03/03 09:14:53;;;;;;;;;51.50;40.50;;;;;18.32;52.05;101260.47;5081651;27;62937;-76
2022/03/03 09:17:18;;;;;;;;;50.25;40.00;;;;;18.36;51.98;101259.66;5081263;27;61884;-76
2022/03/03 09:19:44;;;;;;;;;53.25;40.75;;;;;18.41;51.92;101257.09;5082040;27;61951;-76
2022/03/03 09:22:12;;;;;;;;;53.25;41.75;;;;;18.46;51.79;101259.84;5081448;27;61959;-76
2022/03/03 09:24:38;;;;;;;;;55.25;39.50;;;;;18.50;51.64;101259.03;5062595;28;63347;-76
2022/03/03 09:27:04;;;;;;;;;62.25;45.50;;;;;18.56;51.49;101260.03;5081107;27;62102;-76
2022/03/03 09:29:33;;;;;;;;;57.00;44.00;;;;;18.63;51.45;101255.72;5079215;28;62204;-76
2022/03/03 09:32:00;;;;;;;;;51.50;39.25;;;;;18.65;51.40;101261.09;5080236;28;62000;-76
2022/03/03 09:34:25;;;;;;;;;50.50;43.25;;;;;18.72;51.17;101257.66;5096790;27;64260;-76
2022/03/03 09:36:51;;;;;;;;;54.25;42.75;;;;;18.83;51.27;101258.81;5083403;27;62013;-77
2022/03/03 09:39:16;;;;;;;;;57.25;45.25;;;;;18.90;50.83;101251.84;5083947;28;62115;-77
2022/03/03 09:41:42;;;;;;;;;55.25;40.50;;;;;18.86;50.60;101248.22;5083882;28;62068;-76
2022/03/03 09:44:08;;;;;;;;;54.50;42.25;;;;;18.91;50.65;101248.31;5082766;27;62971;-77
2022/03/03 09:46:36;;;;;;;;;58.75;40.75;;;;;18.96;50.83;101249.28;5072886;27;62087;-77
2022/03/03 09:49:03;;;;;;;;;60.25;46.50;;;;;19.03;50.61;101247.63;5081949;28;61844;-77
2022/03/03 09:51:29;;;;;;;;;56.75;44.75;;;;;19.10;50.51;101246.84;5081987;27;62059;-77
2022/03/03 09:53:55;;;;;;;;;52.00;43.25;;;;;19.24;50.11;101242.66;5080385;27;62172;-76
2022/03/03 09:56:22;;;;;;;;;59.25;47.00;;;;;19.28;50.06;101247.16;5081345;28;61909;-76
2022/03/03 09:58:47;;;;;;;;;60.25;46.25;;;;;19.32;50.33;101254.34;5081469;27;62162;-77
2022/03/03 10:01:14;;;;;;;;;54.25;39.75;;;;;19.38;50.02;101245.53;5077566;27;62079;-77
2022/03/03 10:03:41;;;;;;;;;59.00;44.50;;;;;19.40;49.79;101252.66;5086890;27;64763;-76
2022/03/03 10:06:11;;;;;;;;;49.50;40.25;;;;;19.37;50.01;101257.06;5074363;27;62094;-76
2022/03/03 10:08:37;;;;;;;;;56.00;43.50;;;;;19.33;50.23;101249.91;5078674;27;62103;-76
2022/03/03 10:11:03;;;;;;;;;49.00;42.50;;;;;19.39;50.27;101253.56;5073684;28;62081;-77
2022/03/03 10:14:06;;;;;;;;;55.25;41.50;;;;;19.47;49.79;101250.09;5077915;27;62890;-76
2022/03/03 10:16:31;;;;;;;;;52.75;40.75;;;;;19.61;49.74;101254.75;5028838;28;62194;-76
2022/03/03 10:19:03;;;;;;;;;51.50;40.75;;;;;19.71;49.41;101242.53;5038406;28;62061;-76
2022/03/03 10:21:33;;;;;;;;;52.00;44.00;;;;;19.84;49.25;101253.34;5034429;28;62100;-77
2022/03/03 10:23:59;;;;;;;;;52.75;39.25;;;;;19.87;49.26;101245.41;5019433;28;61932;-76
2022/03/03 10:26:40;;;;;;;;;59.00;42.00;;;;;19.90;49.15;101242.75;5037196;28;62045;-76
2022/03/03 10:29:20;;;;;;;;;59.75;43.50;;;;;19.93;49.22;101245.47;5038490;28;61960;-76
2022/03/03 10:31:48;;;;;;;;;52.00;42.75;;;;;19.95;49.00;101247.28;5039927;28;62633;-75
2022/03/03 10:34:19;;;;;;;;;59.00;43.75;;;;;19.92;48.74;101249.91;5039784;28;62104;-75
2022/03/03 10:36:58;;;;;;;;;53.25;40.25;;;;;19.84;49.37;101248.94;5023293;28;61932;-76
2022/03/03 10:39:23;;;;;;;;;57.75;44.00;;;;;19.84;49.70;101240.00;5028984;28;62014;-76
2022/03/03 10:41:55;;;;;;;;;50.00;41.75;;;;;19.76;49.57;101243.47;5021052;28;62194;-76
2022/03/03 10:44:30;;;;;;;;;52.25;41.50;;;;;19.67;49.64;101248.66;5021404;28;63772;-77
2022/03/03 10:47:07;;;;;;;;;54.25;42.50;;;;;19.78;49.48;101243.50;5039347;28;62012;-77
2022/03/03 10:49:36;;;;;;;;;50.75;39.75;;;;;20.01;49.53;101244.72;5043721;28;62011;-77
2022/03/03 10:52:21;;;;;;;;;50.75;43.75;;;;;20.21;48.84;101236.94;5089889;27;61981;-76
2022/03/03 10:54:50;;;;;;;;;58.00;42.75;;;;;20.34;48.64;101232.66;5080990;28;62073;-77
2022/03/03 10:57:40;;;;;;;;;53.00;42.50;;;;;20.39;48.02;101235.38;5081767;27;61828;-77
2022/03/03 11:00:19;;;;;;;;;62.75;45.50;;;;;20.41;47.95;101231.84;5080783;27;61903;-77
2022/03/03 11:02:47;;;;;;;;;55.50;38.50;;;;;20.47;47.91;101227.47;5076488;27;61999;-76
2022/03/03 11:05:14;;;;;;;;;55.25;41.50;;;;;20.52;48.26;101226.63;5080858;28;62945;-77
2022/03/03 11:07:43;;;;;;;;;55.75;43.50;;;;;20.50;47.44;101231.06;5097112;27;62276;-76
2022/03/03 11:10:12;;;;;;;;;56.25;39.00;;;;;20.48;47.59;101232.84;5082045;27;61775;-77
2022/03/03 11:12:39;;;;;;;;;47.75;38.25;;;;;20.51;47.74;101234.63;5078033;27;61937;-77
2022/03/03 11:15:07;;;;;;;;;54.00;40.25;;;;;20.36;48.00;101227.34;5080186;27;62719;-77